createdAt,value
2018-06-25T00:02:16.373Z,11.00
2018-06-25T00:04:44.499Z,11.04
2018-06-25T00:07:12.465Z,11.04
2018-06-25T00:09:40.511Z,11.06
2018-06-25T00:12:08.628Z,11.10
2018-06-25T00:14:36.692Z,11.07
2018-06-25T00:17:04.739Z,11.06
2018-06-25T00:19:32.838Z,11.06
2018-06-25T00:22:00.870Z,11.06
2018-06-25T00:24:28.964Z,11.04
2018-06-25T00:26:57.064Z,11.11
2018-06-25T00:29:25.053Z,11.08
2018-06-25T00:31:53.168Z,11.10
2018-06-25T00:34:21.299Z,11.10
2018-06-25T00:36:49.374Z,11.14
2018-06-25T00:39:17.351Z,11.10
2018-06-25T00:41:45.389Z,11.08
2018-06-25T00:44:16.662Z,11.06
2018-06-25T00:49:26.390Z,11.05
2018-06-25T00:51:54.414Z,11.05
2018-06-25T00:54:22.482Z,11.04
2018-06-25T00:56:50.505Z,11.03
2018-06-25T00:59:29.622Z,11.05
2018-06-25T01:01:57.637Z,11.03
2018-06-25T01:04:25.718Z,11.04
2018-06-25T01:06:53.816Z,11.00
2018-06-25T01:09:21.853Z,10.93
2018-06-25T01:11:49.912Z,10.89
2018-06-25T01:14:17.947Z,10.85
2018-06-25T01:16:45.954Z,10.80
2018-06-25T01:19:14.034Z,10.78
2018-06-25T01:21:42.036Z,10.65
2018-06-25T01:24:10.083Z,10.60
2018-06-25T01:26:38.232Z,10.53
2018-06-25T01:29:06.204Z,10.48
2018-06-25T01:31:34.575Z,10.42
2018-06-25T01:34:02.564Z,10.38
2018-06-25T01:36:30.677Z,10.35
2018-06-25T01:38:58.816Z,10.32
2018-06-25T01:41:26.844Z,10.30
2018-06-25T01:43:54.847Z,10.25
2018-06-25T01:46:22.878Z,10.20
2018-06-25T01:48:50.836Z,10.15
2018-06-25T01:51:18.857Z,10.13
2018-06-25T01:53:46.925Z,10.09
2018-06-25T01:56:14.949Z,10.07
2018-06-25T01:58:43.031Z,10.01
2018-06-25T02:01:11.075Z,10.00
2018-06-25T02:03:39.144Z,9.97
2018-06-25T02:06:07.359Z,9.89
2018-06-25T02:08:35.558Z,9.85
2018-06-25T02:11:03.652Z,9.88
2018-06-25T02:13:31.730Z,9.84
2018-06-25T02:15:59.849Z,9.80
2018-06-25T02:18:27.877Z,9.76
2018-06-25T02:20:55.886Z,9.73
2018-06-25T02:23:23.944Z,9.67
2018-06-25T02:25:51.955Z,9.66
2018-06-25T02:28:20.039Z,9.65
2018-06-25T02:30:48.146Z,9.64
2018-06-25T02:33:16.146Z,9.68
2018-06-25T02:35:44.161Z,9.71
2018-06-25T02:38:12.255Z,9.70
2018-06-25T02:40:40.323Z,9.69
2018-06-25T02:43:08.355Z,9.72
2018-06-25T02:45:36.336Z,9.74
2018-06-25T02:48:04.363Z,9.78
2018-06-25T02:50:32.449Z,9.74
2018-06-25T02:53:00.604Z,9.75
2018-06-25T02:55:28.594Z,9.75
2018-06-25T02:57:56.655Z,9.79
2018-06-25T03:00:24.791Z,9.75
2018-06-25T03:02:52.831Z,9.83
2018-06-25T03:05:20.901Z,9.93
2018-06-25T03:07:48.871Z,10.05
2018-06-25T03:10:17.024Z,10.10
2018-06-25T03:12:45.099Z,10.15
2018-06-25T03:15:13.288Z,10.33
2018-06-25T03:17:41.394Z,11.11
2018-06-25T03:20:09.745Z,11.23
2018-06-25T03:22:37.793Z,11.10
2018-06-25T03:25:05.787Z,11.04
2018-06-25T03:27:33.920Z,10.91
2018-06-25T03:30:02.001Z,10.82
2018-06-25T03:32:30.257Z,10.82
2018-06-25T03:34:58.439Z,10.86
2018-06-25T03:37:26.554Z,10.98
2018-06-25T03:39:54.586Z,11.04
2018-06-25T03:42:22.601Z,11.13
2018-06-25T03:44:50.873Z,11.30
2018-06-25T03:47:18.924Z,11.59
2018-06-25T03:49:47.016Z,11.83
2018-06-25T03:52:15.158Z,12.01
2018-06-25T03:54:43.297Z,11.89
2018-06-25T03:57:11.407Z,11.93
2018-06-25T03:59:39.731Z,12.07
2018-06-25T04:02:07.887Z,12.21
2018-06-25T04:04:35.889Z,12.13
2018-06-25T04:07:04.085Z,12.18
2018-06-25T04:09:32.110Z,12.39
2018-06-25T04:12:00.176Z,12.53
2018-06-25T04:14:28.337Z,12.91
2018-06-25T04:16:56.755Z,12.94
2018-06-25T04:19:24.833Z,12.74
2018-06-25T04:21:52.902Z,12.64
2018-06-25T04:24:21.211Z,12.59
2018-06-25T04:26:49.256Z,12.65
2018-06-25T04:29:17.252Z,12.67
2018-06-25T04:31:45.418Z,12.52
2018-06-25T04:34:14.824Z,12.38
2018-06-25T04:36:42.955Z,12.40
2018-06-25T04:39:11.171Z,12.41
2018-06-25T04:41:39.275Z,12.44
2018-06-25T04:44:07.311Z,12.50
2018-06-25T04:46:35.290Z,12.57
2018-06-25T04:49:03.471Z,12.58
2018-06-25T04:51:31.733Z,12.69
2018-06-25T04:54:00.147Z,12.82
2018-06-25T04:56:28.285Z,13.13
2018-06-25T04:58:56.627Z,13.35
2018-06-25T05:01:24.852Z,15.35
2018-06-25T05:03:53.547Z,15.81
2018-06-25T05:06:22.016Z,17.36
2018-06-25T05:08:50.166Z,16.44
2018-06-25T05:11:18.253Z,16.32
2018-06-25T05:13:47.061Z,15.52
2018-06-25T05:16:15.862Z,15.30
2018-06-25T05:18:48.830Z,15.37
2018-06-25T05:21:19.385Z,15.23
2018-06-25T05:23:48.693Z,15.12
2018-06-25T05:26:17.441Z,14.81
2018-06-25T05:28:46.258Z,14.70
2018-06-25T05:31:21.961Z,14.36
2018-06-25T05:33:52.327Z,14.13
2018-06-25T05:36:21.298Z,14.13
2018-06-25T05:38:50.150Z,14.16
2018-06-25T05:41:18.571Z,14.19
2018-06-25T05:43:47.267Z,14.53
2018-06-25T05:46:16.240Z,14.48
2018-06-25T05:48:44.617Z,14.52
2018-06-25T05:51:13.425Z,14.49
2018-06-25T05:53:42.085Z,14.80
2018-06-25T05:56:10.546Z,14.62
2018-06-25T05:58:38.946Z,14.93
2018-06-25T06:01:07.523Z,15.06
2018-06-25T06:03:36.200Z,15.30
2018-06-25T06:06:05.904Z,15.33
2018-06-25T06:08:34.486Z,15.31
2018-06-25T06:11:03.704Z,15.56
2018-06-25T06:13:32.172Z,15.75
2018-06-25T06:16:01.269Z,16.09
2018-06-25T06:18:29.963Z,16.22
2018-06-25T06:20:58.581Z,16.54
2018-06-25T06:23:27.076Z,16.57
2018-06-25T06:25:56.143Z,16.63
2018-06-25T06:28:24.533Z,16.51
2018-06-25T06:30:53.041Z,16.95
2018-06-25T06:33:21.567Z,18.20
2018-06-25T06:35:50.666Z,17.61
2018-06-25T06:38:19.543Z,18.12
2018-06-25T06:40:48.383Z,18.45
2018-06-25T06:43:18.191Z,18.45
2018-06-25T06:45:47.161Z,18.36
2018-06-25T06:48:15.929Z,17.76
2018-06-25T06:50:44.927Z,17.72
2018-06-25T06:53:13.492Z,17.70
2018-06-25T06:55:42.210Z,18.92
2018-06-25T06:58:11.195Z,19.64
2018-06-25T07:00:39.866Z,19.36
2018-06-25T07:03:08.735Z,18.71
2018-06-25T07:05:37.743Z,18.75
2018-06-25T07:08:06.561Z,19.59
2018-06-25T07:10:35.252Z,19.57
2018-06-25T07:13:04.128Z,19.38
2018-06-25T07:15:32.780Z,19.65
2018-06-25T07:18:01.630Z,19.23
2018-06-25T07:20:30.021Z,18.57
2018-06-25T07:22:58.318Z,18.40
2018-06-25T07:25:26.628Z,18.37
2018-06-25T07:27:55.035Z,18.19
2018-06-25T07:30:23.591Z,18.33
2018-06-25T07:32:51.845Z,18.66
2018-06-25T07:35:20.103Z,18.98
2018-06-25T07:37:48.364Z,19.38
2018-06-25T07:40:16.780Z,19.94
2018-06-25T07:42:45.090Z,20.16
2018-06-25T07:45:13.207Z,20.08
2018-06-25T07:47:41.855Z,20.39
2018-06-25T07:50:10.285Z,21.26
2018-06-25T07:52:38.579Z,21.68
2018-06-25T07:55:06.881Z,21.50
2018-06-25T07:57:35.219Z,21.74
2018-06-25T08:00:03.935Z,21.86
2018-06-25T08:02:32.099Z,21.24
2018-06-25T08:05:00.425Z,21.08
2018-06-25T08:07:28.658Z,21.62
2018-06-25T08:09:56.881Z,22.57
2018-06-25T08:12:25.167Z,22.20
2018-06-25T08:14:53.450Z,21.29
2018-06-25T08:17:22.210Z,21.45
2018-06-25T08:19:50.602Z,21.61
2018-06-25T08:22:19.151Z,20.84
2018-06-25T08:24:47.467Z,20.95
2018-06-25T08:27:16.220Z,20.20
2018-06-25T08:29:44.452Z,20.39
2018-06-25T08:32:12.589Z,20.71
2018-06-25T08:34:40.768Z,21.39
2018-06-25T08:37:09.028Z,20.73
2018-06-25T08:39:37.173Z,20.25
2018-06-25T08:42:05.806Z,21.75
2018-06-25T08:44:34.437Z,21.65
2018-06-25T08:47:02.763Z,20.85
2018-06-25T08:49:31.258Z,20.88
2018-06-25T08:52:00.006Z,20.33
2018-06-25T08:54:28.585Z,20.69
2018-06-25T08:56:57.329Z,20.85
2018-06-25T08:59:25.640Z,22.59
2018-06-25T09:01:54.202Z,22.55
2018-06-25T09:04:22.734Z,22.09
2018-06-25T09:06:50.964Z,23.15
2018-06-25T09:09:19.209Z,22.36
2018-06-25T09:11:47.477Z,21.32
2018-06-25T09:14:15.813Z,20.90
2018-06-25T09:16:44.110Z,22.19
2018-06-25T09:19:12.676Z,23.10
2018-06-25T09:21:41.201Z,22.85
2018-06-25T09:24:09.566Z,21.98
2018-06-25T09:26:41.746Z,21.65
2018-06-25T09:29:11.259Z,21.83
2018-06-25T09:31:39.733Z,22.46
2018-06-25T09:35:11.398Z,21.64
2018-06-25T09:37:39.740Z,22.14
2018-06-25T09:40:08.323Z,21.26
2018-06-25T09:42:36.769Z,20.64
2018-06-25T09:45:06.553Z,21.02
2018-06-25T09:47:34.850Z,21.67
2018-06-25T09:50:03.165Z,21.71
2018-06-25T09:52:31.617Z,21.31
2018-06-25T09:55:00.070Z,21.38
2018-06-25T09:57:28.426Z,21.30
2018-06-25T09:59:56.717Z,21.07
2018-06-25T10:02:25.205Z,21.57
2018-06-25T10:04:53.800Z,21.68
2018-06-25T10:07:22.861Z,21.88
2018-06-25T10:09:51.223Z,22.21
2018-06-25T10:12:19.925Z,22.56
2018-06-25T10:14:48.537Z,22.30
2018-06-25T10:17:16.945Z,21.95
2018-06-25T10:19:45.260Z,21.81
2018-06-25T10:22:13.625Z,23.13
2018-06-25T10:24:42.100Z,23.17
2018-06-25T10:27:10.316Z,23.29
2018-06-25T10:29:38.964Z,23.61
2018-06-25T10:32:07.740Z,23.26
2018-06-25T10:34:36.228Z,22.34
2018-06-25T10:37:04.785Z,21.80
2018-06-25T10:39:33.148Z,21.66
2018-06-25T10:42:01.472Z,21.81
2018-06-25T10:44:30.466Z,22.18
2018-06-25T10:46:59.018Z,23.03
2018-06-25T10:49:27.163Z,23.89
2018-06-25T10:51:55.477Z,24.66
2018-06-25T10:54:23.942Z,24.93
2018-06-25T10:56:52.303Z,24.78
2018-06-25T10:59:20.885Z,24.69
2018-06-25T11:01:49.493Z,24.69
2018-06-25T11:04:17.929Z,24.70
2018-06-25T11:06:46.097Z,23.53
2018-06-25T11:09:14.368Z,23.16
2018-06-25T11:11:42.710Z,22.22
2018-06-25T11:14:10.910Z,22.22
2018-06-25T11:16:39.455Z,21.98
2018-06-25T11:19:07.679Z,22.65
2018-06-25T11:21:35.835Z,23.12
2018-06-25T11:24:04.357Z,23.72
2018-06-25T11:26:32.780Z,23.90
2018-06-25T11:29:01.081Z,24.11
2018-06-25T11:31:29.436Z,23.95
2018-06-25T11:33:57.717Z,24.10
2018-06-25T11:36:25.950Z,24.57
2018-06-25T11:38:54.328Z,24.45
2018-06-25T11:41:22.773Z,23.35
2018-06-25T11:43:52.278Z,22.43
2018-06-25T11:46:20.581Z,21.48
2018-06-25T11:48:48.711Z,21.38
2018-06-25T11:51:17.182Z,22.38
2018-06-25T11:53:46.323Z,22.83
2018-06-25T11:56:14.910Z,22.97
2018-06-25T11:58:43.265Z,22.41
2018-06-25T12:01:11.552Z,22.86
2018-06-25T12:03:40.538Z,22.86
2018-06-25T12:06:09.040Z,22.74
2018-06-25T12:08:37.529Z,23.25
2018-06-25T12:11:06.364Z,23.37
2018-06-25T12:13:34.813Z,23.31
2018-06-25T12:16:03.307Z,23.33
2018-06-25T12:18:31.783Z,23.89
2018-06-25T12:21:00.170Z,24.19
2018-06-25T12:23:28.833Z,24.43
2018-06-25T12:25:57.282Z,24.14
2018-06-25T12:28:25.879Z,24.84
2018-06-25T12:30:54.782Z,25.04
2018-06-25T12:33:23.073Z,23.97
2018-06-25T12:35:51.373Z,22.46
2018-06-25T12:38:19.752Z,22.27
2018-06-25T12:40:48.273Z,22.12
2018-06-25T12:43:16.733Z,22.00
2018-06-25T12:45:44.971Z,21.79
2018-06-25T12:48:13.446Z,21.75
2018-06-25T12:50:41.965Z,21.88
2018-06-25T12:53:10.306Z,22.11
2018-06-25T12:55:38.653Z,22.33
2018-06-25T12:58:06.872Z,22.47
2018-06-25T13:00:35.704Z,22.45
2018-06-25T13:03:03.936Z,22.65
2018-06-25T13:05:32.237Z,22.85
2018-06-25T13:08:00.536Z,22.85
2018-06-25T13:10:28.972Z,22.73
2018-06-25T13:12:57.683Z,22.52
2018-06-25T13:15:25.913Z,22.89
2018-06-25T13:17:54.213Z,23.68
2018-06-25T13:20:22.505Z,24.04
2018-06-25T13:22:50.888Z,24.40
2018-06-25T13:25:19.209Z,24.81
2018-06-25T13:27:47.457Z,25.20
2018-06-25T13:30:15.697Z,24.87
2018-06-25T13:32:44.028Z,24.96
2018-06-25T13:35:12.225Z,24.18
2018-06-25T13:37:40.397Z,24.21
2018-06-25T13:40:08.979Z,24.14
2018-06-25T13:42:37.281Z,23.95
2018-06-25T13:45:05.523Z,23.14
2018-06-25T13:47:33.851Z,22.66
2018-06-25T13:50:02.038Z,22.61
2018-06-25T13:52:30.161Z,22.85
2018-06-25T13:54:58.436Z,23.29
2018-06-25T13:57:26.710Z,23.32
2018-06-25T13:59:54.902Z,23.04
2018-06-25T14:02:23.036Z,22.95
2018-06-25T14:04:51.335Z,22.73
2018-06-25T14:07:19.458Z,22.92
2018-06-25T14:09:47.682Z,22.91
2018-06-25T14:12:15.881Z,22.81
2018-06-25T14:14:44.326Z,22.99
2018-06-25T14:17:12.938Z,22.73
2018-06-25T14:19:41.150Z,22.49
2018-06-25T14:22:09.375Z,22.79
2018-06-25T14:24:43.178Z,22.37
2018-06-25T14:27:12.308Z,22.44
2018-06-25T14:29:40.566Z,22.44
2018-06-25T14:32:14.475Z,22.24
2018-06-25T14:34:47.609Z,22.33
2018-06-25T14:37:16.374Z,22.30
2018-06-25T14:39:44.736Z,22.00
2018-06-25T14:42:13.310Z,21.80
2018-06-25T14:44:41.513Z,21.67
2018-06-25T14:47:09.984Z,21.78
2018-06-25T14:49:38.369Z,21.38
2018-06-25T14:52:06.499Z,21.30
2018-06-25T14:54:35.008Z,21.24
2018-06-25T14:57:03.466Z,20.89
2018-06-25T14:59:31.986Z,20.65
2018-06-25T15:02:00.409Z,20.45
2018-06-25T15:04:28.634Z,20.34
2018-06-25T15:06:56.972Z,20.39
2018-06-25T15:09:25.398Z,20.67
2018-06-25T15:11:53.602Z,20.69
2018-06-25T15:14:21.899Z,20.69
2018-06-25T15:16:50.389Z,20.81
2018-06-25T15:19:18.653Z,20.65
2018-06-25T15:21:46.890Z,20.45
2018-06-25T15:24:15.241Z,20.35
2018-06-25T15:26:43.571Z,20.25
2018-06-25T15:29:11.785Z,20.21
2018-06-25T15:31:40.122Z,20.11
2018-06-25T15:34:08.470Z,20.13
2018-06-25T15:36:36.700Z,20.21
2018-06-25T15:39:08.249Z,20.31
2018-06-25T15:41:36.911Z,20.35
2018-06-25T15:44:05.234Z,20.33
2018-06-25T15:46:33.752Z,20.32
2018-06-25T15:49:01.951Z,20.28
2018-06-25T15:51:30.365Z,20.38
2018-06-25T15:53:58.835Z,20.34
2018-06-25T15:56:27.133Z,20.33
2018-06-25T15:58:55.472Z,20.23
2018-06-25T16:01:23.616Z,20.13
2018-06-25T16:03:52.009Z,20.16
2018-06-25T16:06:20.516Z,20.01
2018-06-25T16:08:48.643Z,19.98
2018-06-25T16:11:16.893Z,20.00
2018-06-25T16:13:45.325Z,19.82
2018-06-25T16:16:13.513Z,19.82
2018-06-25T16:18:41.686Z,19.76
2018-06-25T16:21:10.091Z,19.80
2018-06-25T16:23:38.269Z,19.76
2018-06-25T16:26:06.682Z,19.63
2018-06-25T16:28:34.866Z,19.68
2018-06-25T16:31:03.103Z,19.67
2018-06-25T16:33:31.405Z,19.54
2018-06-25T16:35:59.721Z,19.56
2018-06-25T16:38:28.094Z,19.38
2018-06-25T16:40:57.313Z,19.14
2018-06-25T16:43:25.689Z,18.95
2018-06-25T16:45:54.079Z,18.85
2018-06-25T16:48:22.211Z,18.86
2018-06-25T16:50:50.800Z,19.01
2018-06-25T16:53:19.255Z,18.83
2018-06-25T16:55:47.352Z,18.69
2018-06-25T16:58:15.488Z,18.84
2018-06-25T17:00:43.728Z,18.69
2018-06-25T17:03:11.886Z,18.66
2018-06-25T17:05:40.060Z,18.31
2018-06-25T17:08:08.466Z,18.33
2018-06-25T17:10:36.877Z,18.42
2018-06-25T17:13:05.090Z,18.42
2018-06-25T17:15:33.743Z,18.19
2018-06-25T17:18:03.021Z,18.37
2018-06-25T17:20:32.184Z,18.06
2018-06-25T17:23:00.559Z,17.92
2018-06-25T17:25:33.168Z,18.19
2018-06-25T17:28:01.396Z,17.90
2018-06-25T17:30:29.617Z,17.95
2018-06-25T17:32:57.850Z,17.76
2018-06-25T17:35:26.019Z,17.62
2018-06-25T17:37:54.417Z,17.41
2018-06-25T17:40:22.559Z,17.23
2018-06-25T17:42:50.757Z,17.41
2018-06-25T17:45:19.243Z,17.37
2018-06-25T17:47:47.556Z,17.12
2018-06-25T17:50:16.459Z,16.89
2018-06-25T17:52:44.976Z,16.85
2018-06-25T17:55:13.320Z,17.13
2018-06-25T17:57:41.650Z,16.79
2018-06-25T18:00:10.055Z,16.52
2018-06-25T18:02:38.462Z,16.45
2018-06-25T18:05:06.800Z,16.44
2018-06-25T18:07:35.089Z,16.36
2018-06-25T18:10:03.475Z,16.30
2018-06-25T18:12:31.925Z,16.14
2018-06-25T18:15:00.218Z,16.12
2018-06-25T18:17:28.315Z,15.89
2018-06-25T18:19:56.660Z,15.72
2018-06-25T18:22:25.204Z,15.65
2018-06-25T18:24:53.728Z,15.60
2018-06-25T18:27:22.187Z,15.41
2018-06-25T18:29:51.093Z,15.36
2018-06-25T18:32:19.445Z,15.29
2018-06-25T18:34:47.643Z,15.26
2018-06-25T18:37:16.027Z,15.18
2018-06-25T18:39:44.400Z,15.13
2018-06-25T18:42:12.630Z,15.31
2018-06-25T18:44:41.087Z,15.08
2018-06-25T18:47:09.340Z,15.03
2018-06-25T18:49:37.621Z,14.96
2018-06-25T18:52:05.908Z,14.90
2018-06-25T18:54:34.052Z,14.83
2018-06-25T18:57:02.300Z,14.81
2018-06-25T18:59:30.524Z,14.74
2018-06-25T19:01:58.675Z,14.70
2018-06-25T19:04:26.841Z,14.71
2018-06-25T19:06:55.310Z,14.63
2018-06-25T19:09:23.658Z,14.61
2018-06-25T19:11:52.052Z,14.62
2018-06-25T19:14:26.331Z,14.61
2018-06-25T19:16:54.644Z,14.58
2018-06-25T19:19:22.938Z,14.44
2018-06-25T19:21:51.304Z,14.48
2018-06-25T19:24:19.539Z,14.41
2018-06-25T19:26:47.818Z,14.31
2018-06-25T19:29:16.125Z,14.22
2018-06-25T19:31:44.210Z,14.20
2018-06-25T19:34:12.512Z,14.27
2018-06-25T19:36:40.726Z,14.37
2018-06-25T19:39:11.423Z,14.57
2018-06-25T19:41:40.056Z,14.46
2018-06-25T19:44:08.843Z,14.47
2018-06-25T19:46:37.113Z,14.27
2018-06-25T19:49:05.904Z,14.15
2018-06-25T19:51:34.210Z,14.06
2018-06-25T19:54:02.559Z,14.05
2018-06-25T19:56:30.801Z,14.09
2018-06-25T19:58:59.013Z,14.20
2018-06-25T20:01:27.269Z,14.16
2018-06-25T20:03:55.747Z,14.12
2018-06-25T20:06:24.105Z,14.06
2018-06-25T20:08:52.257Z,14.03
2018-06-25T20:11:20.618Z,14.09
2018-06-25T20:13:49.168Z,14.17
2018-06-25T20:16:17.455Z,14.19
2018-06-25T20:18:45.879Z,14.11
2018-06-25T20:21:14.778Z,14.22
2018-06-25T20:23:43.326Z,14.10
2018-06-25T20:26:11.580Z,14.06
2018-06-25T20:28:40.014Z,14.08
2018-06-25T20:31:08.342Z,14.08
2018-06-25T20:33:36.728Z,14.20
2018-06-25T20:36:06.170Z,14.31
2018-06-25T20:38:34.624Z,14.72
2018-06-25T20:41:02.776Z,14.58
2018-06-25T20:43:31.116Z,14.47
2018-06-25T20:46:03.173Z,14.50
2018-06-25T20:48:31.578Z,14.57
2018-06-25T20:50:59.683Z,14.66
2018-06-25T20:53:27.979Z,14.71
2018-06-25T20:55:57.051Z,14.46
2018-06-25T20:58:25.714Z,14.56
2018-06-25T21:00:53.853Z,14.77
2018-06-25T21:03:22.044Z,14.61
2018-06-25T21:05:50.294Z,14.48
2018-06-25T21:08:18.477Z,14.51
2018-06-25T21:10:46.812Z,14.49
2018-06-25T21:13:15.150Z,14.47
2018-06-25T21:15:43.476Z,14.44
2018-06-25T21:18:11.773Z,14.45
2018-06-25T21:20:40.096Z,14.39
2018-06-25T21:23:08.235Z,14.32
2018-06-25T21:25:36.481Z,14.40
2018-06-25T21:28:04.632Z,14.25
2018-06-25T21:30:32.924Z,14.62
2018-06-25T21:33:01.301Z,14.48
2018-06-25T21:35:29.654Z,14.21
2018-06-25T21:37:57.868Z,14.26
2018-06-25T21:40:26.293Z,14.09
2018-06-25T21:42:54.399Z,13.94
2018-06-25T21:45:22.632Z,13.82
2018-06-25T21:47:50.784Z,13.90
2018-06-25T21:50:18.862Z,13.70
2018-06-25T21:52:47.224Z,13.59
2018-06-25T21:55:15.323Z,13.62
2018-06-25T21:57:43.449Z,13.56
2018-06-25T22:00:12.924Z,13.62
2018-06-25T22:02:41.194Z,13.72
2018-06-25T22:05:09.464Z,14.02
2018-06-25T22:07:37.546Z,14.81
2018-06-25T22:10:06.258Z,15.03
2018-06-25T22:12:34.530Z,15.44
2018-06-25T22:15:02.690Z,15.09
2018-06-25T22:17:30.782Z,14.87
2018-06-25T22:19:58.968Z,14.71
2018-06-25T22:22:27.020Z,14.67
2018-06-25T22:24:55.136Z,14.86
2018-06-25T22:27:23.200Z,14.88
2018-06-25T22:29:51.487Z,14.57
2018-06-25T22:32:19.924Z,14.62
2018-06-25T22:34:47.959Z,14.80
2018-06-25T22:37:16.045Z,15.95
2018-06-25T22:39:44.146Z,16.22
2018-06-25T22:42:12.186Z,15.95
2018-06-25T22:44:40.318Z,15.45
2018-06-25T22:47:08.459Z,15.14
2018-06-25T22:49:36.498Z,15.06
2018-06-25T22:52:04.801Z,14.86
2018-06-25T22:54:32.924Z,14.73
2018-06-25T22:57:01.012Z,14.89
2018-06-25T22:59:29.108Z,14.86
2018-06-25T23:01:57.199Z,14.81
2018-06-25T23:04:25.263Z,14.71
2018-06-25T23:06:53.398Z,14.58
2018-06-25T23:09:21.479Z,14.67
2018-06-25T23:11:49.627Z,15.08
2018-06-25T23:14:17.734Z,15.08
2018-06-25T23:16:46.006Z,15.23
2018-06-25T23:19:14.265Z,15.22
2018-06-25T23:21:42.315Z,15.21
2018-06-25T23:24:10.413Z,15.41
2018-06-25T23:26:38.730Z,15.37
2018-06-25T23:29:06.859Z,15.55
2018-06-25T23:31:34.989Z,15.58
2018-06-25T23:34:03.177Z,16.00
2018-06-25T23:36:31.279Z,16.03
2018-06-25T23:38:59.424Z,16.08
2018-06-25T23:41:27.502Z,15.94
2018-06-25T23:43:55.575Z,16.01
2018-06-25T23:46:23.813Z,16.05
2018-06-25T23:48:51.977Z,16.01
2018-06-25T23:51:19.954Z,16.04
2018-06-25T23:53:48.041Z,15.99
2018-06-25T23:56:16.306Z,16.07
2018-06-25T23:58:44.522Z,16.02
